x

8461490 - New London, Ct (nlnc3) Weather Station

8:18 - Wed 29th Jun 2016 All times are EDT. -4 hours from GMT.

  • Wind
    6mph, 7mph gusts
  • Sea Temp 66°f
  • Luft Temp 67°f
  • Sea Pressure 1011.8mb
  • 8461490 - New London, Ct
  • 8461490 - New London, Ct

More Historic Weather Station data

Upgrade to MSW Pro to gain access to the past 30 days of data for over 8000 Wavebouys and Weather Stations around the globe.

Join Pro

Comparision Forecast

View Surf forecast
   
Mi 06/29 8:18 6 7 mph 1011.8mb 66f 67f
8:12 3 5 mph 1011.8mb 66f 67f
8:06 3 6 mph 1011.7mb 66f 67f
8:00 5 6 mph 1011.9mb 66f 67f
7:54 3 5 mph 1011.7mb 66f 67f
7:48 3 5 mph 1011.6mb 66f 67f
7:42 5 6 mph 1011.6mb 66f 67f
7:36 3 5 mph 1011.6mb 66f 67f
7:30 3 5 mph 1011.6mb 66f 67f
7:24 2 5 mph 1011.6mb 66f 67f
7:18 3 5 mph 1011.5mb 66f 67f
7:12 3 5 mph 1011.5mb 66f 67f
7:06 3 5 mph 1011.4mb 66f 67f
7:00 2 3 mph 1011.4mb 65f 67f
6:54 2 5 mph 1011.4mb 65f 67f
6:48 3 6 mph 1011.5mb 65f 67f
6:42 3 6 mph 1011.5mb 65f 67f
6:36 3 5 mph 1011.4mb 66f 67f
6:30 5 6 mph 1011.5mb 66f 67f
6:24 6 7 mph 1011.4mb 66f 67f
6:18 5 6 mph 1011.5mb 66f 67f
6:12 5 7 mph 1011.5mb 66f 67f
6:06 6 8 mph 1011.5mb 65f 67f
6:00 6 7 mph 1011.5mb 65f 67f
5:54 3 6 mph 1011.5mb 65f 67f
5:48 5 7 mph 1011.5mb 66f 67f
5:42 6 7 mph 1011.5mb 65f 67f
5:36 6 7 mph 1011.5mb 65f 67f
5:30 5 6 mph 1011.4mb 65f 67f
5:24 6 7 mph 1011.5mb 65f 67f
5:18 6 7 mph 1011.4mb 65f 67f
5:12 5 7 mph 1011.4mb 66f 67f
5:06 6 8 mph 1011.4mb 66f 67f
5:00 5 6 mph 1011.4mb 66f 67f
4:54 5 6 mph 1011.4mb 66f 67f
4:48 3 6 mph 1011.4mb 66f 67f
4:42 5 6 mph 1011.3mb 66f 67f
4:36 6 7 mph 1011.2mb 66f 67f
4:30 5 6 mph 1011.2mb 66f 67f
4:24 5 6 mph 1011.4mb 66f 67f
4:18 3 6 mph 1011.4mb 66f 67f
4:12 6 9 mph 1011.5mb 66f 67f
4:06 8 9 mph 1011.5mb 66f 67f
4:00 8 9 mph 1011.5mb 65f 67f
3:54 7 8 mph 1011.6mb 65f 67f
3:48 7 8 mph 1011.7mb 66f 67f
3:42 7
mph
1011.7mb 66f 67f
3:36 7 8 mph 1011.7mb 65f 67f
3:30 6 8 mph 1011.6mb 65f 67f
3:24 7 9 mph 1011.6mb 65f 67f
3:18 8
mph
1011.6mb 65f 67f
3:12 7 8 mph 1011.7mb 65f 67f
3:06 5 8 mph 1011.6mb 66f 68f
3:00 7 8 mph 1011.6mb 66f 68f
2:54 6 8 mph 1011.6mb 67f 68f
2:48 6 8 mph 1011.6mb 67f 67f
2:42 6 7 mph 1011.7mb 67f 66f
2:36 7 8 mph 1011.7mb 67f 66f
2:30 7 9 mph 1011.8mb 67f 66f
2:24 7 8 mph 1011.8mb 67f 66f
2:18 8 10 mph 1011.9mb 67f 66f
2:12 7 8 mph 1011.8mb 67f 66f
2:06 6 7 mph 1011.9mb 67f 66f
2:00 5 7 mph 1011.8mb 67f 66f
1:54 6 9 mph 1011.8mb 67f 66f
1:48  -  mph 1011.9mb 67f 67f
1:42  -  mph 1011.9mb 67f 67f
1:36  -  mph 1012mb 67f 67f
1:30 6 10 mph 1012mb 66f 67f
1:24 8 11 mph 1012.1mb 65f 67f
1:18 9 13 mph 1012.1mb 66f 68f
1:12 11 14 mph 1012.2mb 66f 68f
1:06 9 14 mph 1012.2mb 67f 68f
1:00 9 11 mph 1012.3mb 67f 68f
12:54 11 14 mph 1012.4mb 68f 68f
12:48 7 9 mph 1012.3mb 68f 68f
12:42 7 10 mph 1012.4mb 68f 68f
12:36 7 9 mph 1012.4mb 68f 68f
12:30 7 14 mph 1012.4mb 67f 68f
12:24 10 13 mph 1012.6mb 67f 68f
12:18 5 8 mph 1012.6mb 67f 68f
12:12 6 7 mph 1012.6mb 67f 68f
12:06 7 10 mph 1012.6mb 67f 68f
12:00 8 13 mph 1012.8mb 67f 68f
Di 06/28 11:54 9 11 mph 1012.7mb 67f 68f
11:48  -  mph 1012.8mb 67f 68f
11:42  -  mph 1012.8mb 67f 68f
11:36  -  mph 1012.7mb 67f 68f
11:30 7 8 mph 1012.7mb 67f 68f
11:24 6 8 mph 1012.7mb 67f 68f
11:18 6 7 mph 1012.7mb 67f 68f
11:12 6 7 mph 1012.8mb 67f 68f
11:06 7 8 mph 1013mb 67f 68f
11:00  -  mph 1013mb 67f -
10:54  -  mph 1013.1mb 67f -
10:48 6 8 mph - 67f -
10:42 7 9 mph - 67f -
10:36 6 7 mph - 66f -
10:30  -  mph 1013.4mb 66f 68f
10:24  -  mph 1013.5mb 66f 68f
10:18  -  mph 1013.4mb 67f -
10:12  -  mph 1013.5mb 67f -
10:06  -  mph 1013.6mb 67f -
10:00  -  mph 1013.5mb 66f -
9:54  -  mph 1013.5mb 65f -
9:48  -  mph 1013.5mb 65f -
9:42  -  mph 1013.6mb 65f -
9:36  -  mph 1013.6mb 65f -
9:30  -  mph 1013.4mb 64f -
9:24  -  mph 1013.3mb 65f -
9:18  -  mph 1013.2mb 65f 69f
9:12  -  mph 1013.1mb 65f 69f
9:06  -  mph 1013.3mb 65f 69f
9:00  -  mph - 65f 69f
8:54  -  mph - 64f 69f
8:48  -  mph 1013.6mb 65f -
8:42  -  mph 1013.5mb 65f -
8:36  -  mph 1013.6mb 65f -
8:30  -  mph - 66f -
8:24  -  mph - 66f -
8:18  -  mph 1013.4mb 66f 69f
8:12  -  mph 1013.3mb 67f 69f
8:06  -  mph 1013.3mb 66f 70f
8:00  -  mph 1013.3mb 66f -
7:54  -  mph 1013.5mb 65f -
7:48  -  mph - 66f -
7:42  -  mph - 66f -
7:36  -  mph - 66f -
7:30  -  mph - 67f -
7:24  -  mph - 67f -
7:18  -  mph 1013.8mb 67f -
7:12  -  mph 1013.8mb 67f -
7:06  -  mph 1013.7mb 67f -
7:00  -  mph - 67f -
6:54  -  mph - 67f -
6:48  -  mph - 66f -
6:42  -  mph - 66f -
6:36  -  mph - 66f -
6:30  -  mph 1013.6mb 66f -
6:24  -  mph 1013.5mb 67f -
6:18  -  mph - 67f -
6:12  -  mph - 66f -
6:06  -  mph - 66f -
6:00  -  mph 1013.7mb 66f 71f
5:54  -  mph 1013.9mb 65f 71f
5:48  -  mph - 65f 71f
5:42  -  mph - 66f 70f
5:36  -  mph - 66f 71f
5:30 5 7 mph 1013.8mb 65f 71f
5:24 6 7 mph 1013.8mb 64f 70f
5:18 6 9 mph 1013.8mb 64f 70f
5:12 7 9 mph 1013.8mb 65f 70f
5:06 7 10 mph 1013.8mb 65f 70f
5:00 7 10 mph 1013.9mb 65f 70f
4:54 8 9 mph 1014mb 65f 70f
4:48 7 8 mph 1014mb 65f 70f
4:42 7 9 mph 1014mb 65f 70f
4:36 7 10 mph 1014mb 65f 70f
4:30 7 10 mph 1014.1mb 65f 70f
4:24 8 11 mph 1014.1mb 65f 70f
4:18 9 13 mph 1014.1mb 65f 70f
4:12 8 10 mph 1014.2mb 65f 70f
4:06 10 11 mph 1014.2mb 65f 70f
4:00 9 10 mph 1014.3mb 65f 70f
3:54 6 9 mph 1014.3mb 65f 70f
3:48 6 9 mph 1014.3mb 65f 70f
3:42 9 10 mph 1014.4mb 65f 70f
3:36 8 10 mph 1014.5mb 65f 70f
3:30 7 9 mph 1014.5mb 64f 71f
3:24 6 8 mph 1014.5mb 64f 71f
3:18 6 8 mph 1014.5mb 64f 71f
3:12 6 9 mph 1014.6mb 64f 71f
3:06 5 8 mph 1014.6mb 65f 71f
3:00 7 9 mph 1014.6mb 65f 71f
2:54 6 7 mph 1014.6mb 65f 71f
2:48 5 8 mph 1014.7mb 66f 71f
2:42 6 7 mph 1014.8mb 66f 70f
2:36 6 7 mph 1014.9mb 66f 71f
2:30 7 8 mph 1014.9mb 65f 71f
2:24 7 8 mph 1014.9mb 65f 71f
2:18 6 8 mph 1014.9mb 65f 70f
2:12 6 8 mph 1014.9mb 65f 70f
2:06 8 10 mph 1015.1mb 66f 69f
2:00 9 10 mph 1015.2mb 65f 70f
1:54 9
mph
1015.2mb 64f 69f
1:48 8
mph
1015.2mb 65f 69f
1:42 7 8 mph 1015.3mb 66f 69f
1:36 7 8 mph 1015.3mb 65f 69f
1:30 7 8 mph 1015.3mb 63f 69f
1:24 7 8 mph 1015.3mb 63f 69f
1:18 6 9 mph 1015.3mb 63f 69f
1:12 8 9 mph 1015.3mb 65f 69f
1:06 8 10 mph 1015.4mb 67f 68f
1:00 9
mph
1015.5mb 67f 68f
12:54 7 9 mph 1015.6mb 66f 69f
12:48 6 7 mph 1015.7mb 66f 69f
12:42 6 7 mph 1015.8mb 66f 69f
12:36 6 9 mph 1015.8mb 65f 69f
12:30 8 11 mph 1015.9mb 65f 68f
12:24 8 10 mph 1015.9mb 65f 69f
12:18 8 9 mph 1015.9mb 65f 69f
12:12 7 8 mph 1015.9mb 65f 69f
12:06 6 7 mph 1015.8mb 65f 69f
12:00 6 7 mph 1015.9mb 67f 69f
11:54 7 8 mph 1015.9mb 67f 69f
11:48 7 8 mph 1016mb 66f 69f
11:42 7 9 mph 1016.1mb 66f 69f
11:36 7 8 mph 1016.1mb 67f 69f
11:30 7 10 mph 1016mb 67f 69f
11:24 7 8 mph 1016mb 67f 69f
11:18 6 8 mph 1016mb 68f 70f
11:12 6 7 mph 1016mb 68f 70f
11:06 6 7 mph 1016mb 68f 70f
11:00 6
mph
1016mb 68f 70f
10:54 5
mph
1016mb 67f 70f
10:48 3 5 mph 1015.9mb 67f 70f
10:42 3 5 mph 1016mb 67f 70f
10:36 2 3 mph 1016mb 67f 70f
10:30 3
mph
1016.1mb 67f 70f
10:24 2
mph
1016.1mb 67f 70f
10:18 2 3 mph 1016.1mb 67f 70f
10:12 2 6 mph 1016.1mb 67f 70f
10:06 5 7 mph 1016.1mb 68f 71f
10:00 6 8 mph 1016.2mb 68f 71f
9:54 6 9 mph 1016.3mb 67f 71f
9:48  -  mph 1016.2mb 67f 71f
9:42  -  mph 1016.3mb 67f 71f
9:36  -  mph 1016.3mb 67f 71f
9:30 3 11 mph 1016.3mb 67f 71f
9:24 6 10 mph 1016.3mb 66f 71f
9:18 5 7 mph 1016.4mb 67f 70f
9:12 5 7 mph 1016.4mb 67f 69f
9:06 6 7 mph 1016.4mb 64f 69f
9:00 6 7 mph 1016.4mb 64f 69f
8:54 5 6 mph 1016.4mb 64f 69f
8:48 6 8 mph 1016.4mb 65f 68f
8:42 7 9 mph 1016.4mb 66f 68f
8:36 7 10 mph 1016.4mb 66f 67f
8:30 8 10 mph 1016.3mb 66f 67f
8:24 9 11 mph 1016.3mb 66f 67f
8:18 10 11 mph 1016.3mb 66f 67f
8:12 10
mph
1016.2mb 67f 68f
8:06 9 10 mph 1016.2mb 67f 68f
8:00 8 10 mph 1016.1mb 67f 68f
7:54 6 8 mph 1016.1mb 67f 69f
7:48 7 8 mph 1016.1mb 66f 70f
7:42 6 7 mph 1016.1mb 66f 69f
7:36 6 7 mph 1016mb 66f 69f
7:30 6 7 mph 1016mb 67f 68f
7:24 6 7 mph 1016mb 68f 68f
7:18 6 7 mph 1016mb 67f 67f
7:12 7
mph
1015.9mb 67f 67f
7:06 6 7 mph 1015.9mb 67f 67f
7:00 7 8 mph 1015.9mb 67f -
6:54 6 8 mph 1015.9mb 68f -
6:48 7 8 mph 1015.9mb 67f -
6:42 7 8 mph 1015.9mb 68f -
6:36 7 8 mph 1015.9mb 68f -
6:30 7 8 mph 1015.8mb 68f 67f
6:24 7 8 mph 1015.8mb 68f 67f
6:18 6 8 mph 1015.7mb 68f 67f
6:12 7 8 mph 1015.7mb 68f 67f
6:06 7 8 mph 1015.6mb 67f 67f
6:00 7 8 mph 1015.6mb 67f 67f
5:54 7
mph
1015.6mb 67f 67f
5:48 6 7 mph 1015.6mb 67f 67f
5:42 6 7 mph 1015.6mb 67f 67f
5:36 6
mph
1015.6mb 67f 67f
5:30 5 6 mph 1015.6mb 67f 67f
5:24 6
mph
1015.6mb 66f 67f
5:18 6 8 mph 1015.6mb 66f 67f
5:12 8 9 mph 1015.7mb 67f 67f
5:06 8 9 mph 1015.7mb 67f 67f
5:00 8
mph
1015.6mb 66f 67f
4:54 7 8 mph 1015.6mb 66f 67f
4:48 6
mph
1015.7mb 66f 67f
4:42 5 6 mph 1015.6mb 66f 67f
4:36 6 7 mph 1015.6mb 66f 67f
4:30 5 6 mph 1015.5mb 67f 67f
4:24 5 6 mph 1015.5mb 67f 67f
4:18 5 6 mph 1015.5mb 66f 67f
4:12 3 6 mph 1015.5mb 67f 67f
4:06 3 5 mph 1015.5mb 67f 67f
4:00 3 5 mph 1015.6mb 66f 67f
3:54 3 6 mph 1015.6mb 66f 67f
3:48 6 7 mph 1015.6mb 66f 66f
3:42 6 7 mph 1015.6mb 66f 66f
3:36 6 7 mph 1015.7mb 66f 66f
3:30 6 7 mph 1015.8mb 66f 66f
3:24 6 7 mph 1015.8mb 66f 66f
3:18 6 7 mph 1015.8mb 66f 66f
3:12 6 8 mph 1015.9mb 65f 66f
3:06 8 9 mph 1015.9mb 65f 66f
3:00 7 9 mph 1015.9mb 66f 66f
2:54 7 8 mph 1015.9mb 65f 66f
2:48 7 10 mph 1016mb - -
2:42 7 9 mph 1016.1mb - -
2:36 7 8 mph 1016.2mb - -
2:30 7 9 mph 1016.3mb 65f 67f
2:24 8 9 mph 1016.4mb 65f 67f
2:18 8 9 mph 1016.4mb 66f 67f
2:12 7 9 mph 1016.4mb 66f 67f
2:06 7 9 mph 1016.5mb 66f 67f
2:00 8 10 mph 1016.5mb 66f 67f
1:54 6 8 mph 1016.5mb 65f 67f
1:48 6
mph
- - -
1:42 6 7 mph - - -
1:36 6 7 mph - - -
1:30 6 8 mph 1016.7mb 65f 67f
1:24 8 9 mph 1016.8mb 66f 68f
1:18 7 9 mph 1016.8mb 68f 68f
1:12 8 9 mph 1016.7mb 68f 68f
1:06 7 9 mph 1016.7mb 68f 68f
1:00 9 11 mph 1016.8mb 68f 68f
12:54 9 11 mph 1016.8mb 67f 68f
12:48 9 10 mph 1016.9mb 66f 68f
12:42 8 10 mph 1016.9mb 65f 69f
12:36 8 9 mph 1016.9mb 64f 69f
12:30 7 9 mph 1017mb 64f 69f
12:24 8 9 mph 1017.1mb 64f 69f
12:18 8 10 mph 1017.1mb 64f 69f
12:12 7 9 mph 1017.1mb 65f 69f
12:06 7
mph
1017.1mb 65f 69f
12:00 6 7 mph 1017.2mb 66f 69f
Mo 06/27 11:54 6 7 mph 1017.3mb 68f 69f
11:48  -  mph 1017.3mb 68f 69f
11:42  -  mph 1017.3mb 68f 69f
11:36  -  mph 1017.3mb 68f 69f
11:30 7 8 mph 1017.3mb 68f 69f
11:24 7 9 mph 1017.3mb 68f 69f
11:18 7 9 mph 1017.3mb 68f 69f
11:12 7 8 mph 1017.3mb 68f 69f
11:06 7 8 mph 1017.3mb 68f 69f
11:00  -  mph - 67f 69f
10:54  -  mph - 68f 69f
10:48  -  mph 1017.4mb 68f -
10:42  -  mph 1017.4mb 68f -
10:36  -  mph 1017.5mb 67f -
10:30  -  mph 1017.5mb 67f -
10:24  -  mph 1017.4mb 68f -
10:18  -  mph 1017.4mb - 70f
10:12  -  mph 1017.5mb - 70f
10:06  -  mph 1017.5mb - 70f
10:00  -  mph - 68f -
9:54  -  mph - 68f -
9:48  -  mph 1017.5mb - -
9:42  -  mph 1017.5mb - -
9:36  -  mph 1017.5mb - -
9:30  -  mph 1017.5mb 67f -
9:24  -  mph 1017.4mb 67f -
9:18  -  mph 1017.4mb 67f -
9:12  -  mph 1017.4mb 66f -
9:06  -  mph 1017.4mb 66f -
9:00  -  mph 1017.3mb 66f 68f
8:54  -  mph 1017.2mb 67f 68f
8:48  -  mph 1017.1mb 66f -
8:42  -  mph 1017.1mb 66f -
8:36  -  mph 1017.1mb 66f -
8:30  -  mph 1017.1mb 67f -
8:24  -  mph 1017.1mb 67f -
8:18  -  mph 1017.2mb 67f -
8:12  -  mph 1017.2mb 65f -
8:06  -  mph 1017.2mb 65f -
8:00  -  mph 1017.2mb 65f -
7:54  -  mph 1017.2mb 65f -
7:48  -  mph 1017.2mb - -
7:42  -  mph 1017.2mb - -
7:36  -  mph 1017.2mb - -
7:30  -  mph - 67f -
7:24  -  mph - 67f -
7:18  -  mph 1017.2mb 67f -
7:12  -  mph 1017.2mb 67f -
7:06  -  mph 1017.2mb 67f -
7:00  -  mph 1017.2mb 66f -
6:54  -  mph 1017.2mb 66f -
6:48  -  mph 1017.2mb 67f -
6:42  -  mph 1017.2mb 67f -
6:36  -  mph 1017.2mb 67f -
6:30  -  mph 1017.2mb 67f -
6:24  -  mph 1017.1mb 67f -
6:18  -  mph - 67f 68f
6:12  -  mph - 67f 69f
6:06  -  mph - 67f 69f
6:00  -  mph 1017.3mb 67f -
5:54  -  mph 1017.4mb 67f -
5:48  -  mph 1017.5mb 67f 68f
5:42  -  mph 1017.5mb 67f 69f
5:36  -  mph 1017.4mb 67f 69f
5:30 9 11 mph 1017.5mb 67f 68f
5:24 10 13 mph 1017.5mb 67f 68f
5:18 9 11 mph 1017.5mb 67f 68f
5:12 9 13 mph 1017.5mb 66f 68f
5:06 11 14 mph 1017.6mb 65f 68f
5:00 9 14 mph 1017.7mb 65f 68f
4:54 10 14 mph 1017.7mb 66f 68f
4:48 10 14 mph 1017.8mb 66f 67f
4:42 10 13 mph 1017.7mb 65f 68f
4:36 11 14 mph 1017.8mb 66f 68f
4:30 11 13 mph 1017.8mb 65f 68f
4:24 9 13 mph 1017.7mb 65f 68f
4:18 10 16 mph 1017.8mb 65f 69f
4:12 14 16 mph 1017.8mb 66f 69f
4:06 14 16 mph 1017.9mb 66f 71f
4:00 13 16 mph 1017.8mb 66f 71f
3:54 10 17 mph 1017.8mb 66f 71f
3:48 14 17 mph 1017.8mb 66f 71f
3:42 11 15 mph 1017.8mb 66f 70f
3:36 14 16 mph 1017.8mb 66f 70f
3:30 13 16 mph 1017.7mb 65f 69f
3:24 14 17 mph 1017.7mb 65f 70f
3:18 15 18 mph 1017.7mb 65f 70f
3:12 13 15 mph 1017.8mb 65f 70f
3:06 10 15 mph 1017.8mb 64f 73f
3:00 9 14 mph 1017.8mb 65f 74f
2:54 10 17 mph 1018mb 65f 74f
2:48  -  mph 1018.1mb 65f 73f
2:42  -  mph 1018.1mb 64f 72f
2:36  -  mph 1018.1mb 64f 68f
2:30 14 17 mph 1018.2mb 65f 68f
2:24 15 18 mph 1018.2mb 65f 69f
2:18 14 16 mph 1018.2mb 65f 70f
2:12 13 14 mph 1018.2mb 65f 72f
2:06 10 16 mph 1018.3mb 65f 72f
2:00 9 13 mph 1018.4mb 65f 69f
1:54 13 15 mph 1018.6mb 65f 68f
1:48 13 15 mph 1018.6mb 65f 68f
1:42 13 15 mph 1018.6mb 65f 69f
1:36 14 17 mph 1018.7mb 66f 68f
1:30 15 17 mph 1018.8mb 66f 69f
1:24 16 18 mph 1018.9mb 66f 69f
1:18 14 17 mph 1018.9mb 66f 70f
1:12 14 16 mph 1018.8mb 65f 69f
1:06 9 14 mph 1018.9mb 65f 69f
1:00 13 15 mph 1019mb 65f 70f
12:54 11 14 mph 1019mb 66f 71f
12:48 11 14 mph 1019.1mb 65f 70f
12:42 10 15 mph 1019.1mb 66f 70f
12:36 14 17 mph 1019.1mb 66f 70f
12:30 15 17 mph 1019.1mb 65f 71f
12:24 11 14 mph 1019.1mb 63f 73f
12:18 10 14 mph 1019.1mb 62f 74f
12:12 11 16 mph 1019.2mb 63f 74f
12:06 13 16 mph 1019.1mb 63f 74f
12:00 7 10 mph 1019.1mb 65f 72f
11:54 9 11 mph 1019.1mb 64f 70f
11:48 9 13 mph 1019.3mb 64f 70f
11:42 11 14 mph 1019.2mb 64f 70f
11:36 13 14 mph 1019.3mb 66f 70f
11:30 10 13 mph 1019.3mb 66f 70f
11:24 9 13 mph 1019.3mb 67f 70f
11:18 10 13 mph 1019.4mb 66f 69f
11:12 11 14 mph 1019.4mb 67f 69f
11:06 11 14 mph 1019.5mb 67f 68f
11:00 11 14 mph 1019.5mb 67f 68f
10:54 13 15 mph 1019.6mb 68f 68f
10:48 13 14 mph 1019.7mb 68f 68f
10:42 13 14 mph 1019.7mb 67f 68f
10:36 13 15 mph 1019.6mb 68f 68f
10:30 13 15 mph 1019.6mb 68f 68f
10:24 11 13 mph 1019.7mb 68f 68f
10:18 11 14 mph 1019.7mb 67f 68f
10:12 11 14 mph 1019.8mb 68f 67f
10:06 11 14 mph 1019.9mb 68f 67f
10:00 13 14 mph 1020mb 68f 68f
9:54 11 14 mph 1020mb 68f 68f
9:48 10 13 mph 1020mb 68f 69f
9:42 9 10 mph 1020mb 67f 68f
9:36 9 10 mph 1019.9mb 67f 68f
9:30 9 11 mph 1020mb 68f 67f
9:24 10 11 mph 1020mb 67f 67f
9:18 9 13 mph 1020.1mb 68f 67f
9:12 10 13 mph 1020.1mb 67f 67f
9:06 11 13 mph 1020.1mb 67f 67f
9:00 13
mph
1020.1mb 67f 67f
8:54 10 13 mph 1020.2mb 67f 67f
8:48 10 13 mph 1020.3mb 67f 67f
8:42 10 13 mph 1020.3mb 67f 68f
8:36 9 11 mph 1020.3mb 67f 68f
8:30 7 9 mph 1020.2mb 67f 68f
8:24 8 10 mph 1020.2mb 67f 68f
8:18 7 8 mph 1020.1mb 67f 68f
8:12 7 8 mph 1020.1mb 65f 68f
8:06 7 9 mph 1020.1mb 65f 68f
8:00 7 9 mph 1020.1mb 65f 68f
7:54 7 8 mph 1020.1mb 65f 68f
7:48 7 9 mph 1020.1mb 64f 67f
7:42 6 8 mph 1020.1mb 64f 67f
7:36 6 8 mph 1020.1mb 64f 67f
7:30 6 8 mph 1020.2mb 65f 67f
7:24 6 8 mph 1020.1mb 65f 66f
7:18 7 8 mph 1020.1mb 66f 66f
7:12 6 8 mph 1020.1mb 66f 66f
7:06 6 7 mph 1020.1mb 66f 67f
7:00 6 8 mph 1020.2mb 66f 66f
6:54 6 7 mph 1020.2mb 65f 66f
6:48 6 7 mph 1020.3mb 65f 66f
6:42 3 6 mph 1020.3mb 65f 66f
6:36 5 6 mph 1020.3mb 65f 66f
6:30 5 7 mph 1020.3mb 66f 66f
6:24 5 6 mph 1020.2mb 66f 65f
6:18 5 6 mph 1020.2mb 66f 65f
6:12 5 6 mph 1020.2mb 66f 65f
6:06 5 6 mph 1020.2mb 67f 65f
6:00 5 6 mph 1020.3mb 67f 64f
5:54 5 7 mph 1020.3mb 67f 64f
5:48 5 7 mph 1020.4mb 67f 64f
5:42 6 7 mph 1020.4mb 67f 64f
5:36 5 6 mph 1020.3mb 67f 64f
5:30 3 5 mph 1020.4mb 67f 64f
5:24 5 6 mph 1020.3mb 67f 64f
5:18 3 6 mph 1020.3mb 67f 64f
5:12 5 6 mph 1020.3mb 67f 64f
5:06 5 7 mph 1020.3mb 66f 64f
5:00 6 7 mph 1020.2mb 66f 64f
4:54 6 7 mph 1020.2mb 66f 64f
4:48 6 7 mph 1020.3mb 66f 64f
4:42 6 7 mph 1020.3mb 66f 64f
4:36 6 7 mph 1020.3mb 66f 64f
4:30 6 7 mph 1020.3mb 66f 64f
4:24 6
mph
1020.3mb 66f 64f
4:18 6 7 mph 1020.2mb 66f 64f
4:12 5 6 mph 1020.1mb 66f 64f
4:06 5 6 mph 1020.1mb 66f 64f
4:00 5 6 mph 1020.1mb 66f 64f
3:54 5 7 mph 1020.1mb 66f 64f
3:48 6 7 mph 1020.1mb 66f 64f
3:42 6 9 mph 1020.2mb 66f 64f
3:36 8 9 mph 1020mb 66f 64f
3:30 7 8 mph 1020.1mb 66f 64f
3:24 6 7 mph 1020.1mb 66f 64f
3:18 6
mph
1020.2mb 66f 65f
3:12 6
mph
1020.3mb 66f 64f
3:06 5 6 mph 1020.3mb 65f 64f
3:00 3 6 mph 1020.3mb 65f 64f
2:54 5 6 mph 1020.4mb 65f 64f
2:48 5 6 mph 1020.5mb 65f -
2:42 5 7 mph 1020.5mb 65f -
2:36 5 6 mph 1020.5mb 65f -
2:30 5 6 mph 1020.6mb 64f 64f
2:24 6
mph
1020.5mb 64f 64f
2:18 5 6 mph 1020.6mb 65f 64f
2:12 5 7 mph 1020.6mb 65f 64f
2:06 6 7 mph 1020.6mb 65f 64f
2:00 6 7 mph 1020.6mb 65f 64f
1:54 6 7 mph 1020.6mb 65f 64f
1:48 6 7 mph 1020.6mb - -
1:42 6 7 mph 1020.6mb - -
1:36 6 7 mph 1020.6mb - -
1:30 6 7 mph 1020.5mb 65f 64f
1:24 7
mph
1020.5mb 65f 64f
1:18 6 7 mph 1020.5mb 66f 64f
1:12 6
mph
1020.5mb 66f 64f
1:06 5 6 mph 1020.6mb 66f 64f
1:00 6
mph
1020.6mb 66f 64f
12:54 6
mph
1020.6mb 65f 64f
12:48 6
mph
1020.6mb 65f 64f
12:42 6 7 mph 1020.6mb 66f 64f
12:36 6
mph
1020.6mb 65f 64f
12:30 5
mph
1020.7mb 65f 64f
12:24 5 6 mph 1020.7mb 65f 64f
12:18 6 7 mph 1020.7mb 66f 65f
12:12 6 7 mph 1020.6mb 66f 65f
12:06 6 8 mph 1020.7mb 66f 65f
12:00 7
mph
1020.7mb 66f 64f
So 06/26 11:54 7 8 mph 1020.7mb 66f 64f
11:48 7 8 mph 1020.8mb 66f 64f
11:42 6 7 mph 1020.8mb 66f 64f
11:36 6
mph
1020.8mb 66f 65f
11:30 6
mph
1020.7mb 66f 65f
11:24 6 8 mph 1020.7mb 66f 65f
11:18 6 7 mph 1020.7mb 66f 65f
11:12 5 7 mph 1020.6mb 66f 65f
11:06 6 7 mph 1020.6mb 66f 65f
11:00  -  mph 1020.6mb 67f -
10:54  -  mph 1020.6mb 66f -
10:48  -  mph - 67f -
10:42  -  mph - 67f -
10:36  -  mph - 66f -
10:30  -  mph 1020.8mb 67f -
10:24  -  mph 1020.8mb 67f -
10:18  -  mph 1020.8mb 67f 66f
10:12  -  mph 1020.7mb 67f 66f
10:06  -  mph 1020.7mb 67f 66f
10:00  -  mph - 67f -
9:54  -  mph - 67f -
9:48  -  mph - 67f -
9:42  -  mph - 67f -
9:36  -  mph - 67f -
9:30  -  mph 1020.6mb 67f -
9:24  -  mph 1020.7mb 67f -
9:18  -  mph 1020.7mb 67f -
9:12  -  mph 1020.7mb 67f -
9:06  -  mph 1020.7mb 67f -
9:00  -  mph 1020.7mb 67f -
8:54  -  mph 1020.7mb 66f -
8:48  -  mph - 66f -
8:42  -  mph - 66f -
8:36  -  mph - 66f -
8:30  -  mph - 65f -
8:24  -  mph - 66f -
8:18  -  mph 1021mb 66f 68f
8:12  -  mph 1021.1mb 67f 68f
8:06  -  mph 1021.1mb 66f 67f
8:00  -  mph - 66f -
7:54  -  mph - 65f -
7:48  -  mph - 65f -
7:42  -  mph - 64f -
7:36  -  mph - 64f -
7:30 8 9 mph 1021.4mb - -
7:24 8 10 mph 1021.5mb - -
7:18  -  mph 1021.5mb 65f 69f
7:12  -  mph 1021.5mb 65f 69f
7:06  -  mph 1021.6mb 65f 69f
7:00 8 9 mph 1021.6mb 66f -
6:54 7 9 mph 1021.6mb 66f -
6:48  -  mph - 66f -
6:42  -  mph - 66f -
6:36  -  mph - 66f -
6:30  -  mph - 66f -
6:24  -  mph - 66f -
6:18  -  mph 1021.9mb 66f 69f
6:12  -  mph 1021.9mb 67f 69f
6:06  -  mph 1021.9mb 66f 69f
6:00  -  mph 1022mb 67f -
5:54  -  mph 1022.1mb 67f -
5:48  -  mph 1022.2mb 66f -
5:42  -  mph 1022.2mb 67f -
5:36  -  mph 1022.3mb 66f -
5:30 9 11 mph 1022.3mb 67f 68f
5:24 9 13 mph 1022.3mb 67f 68f
5:18 10 14 mph 1022.3mb 67f 68f
5:12 10 13 mph 1022.3mb 68f 67f
5:06 10 13 mph 1022.3mb 67f 67f
5:00 10 14 mph 1022.4mb 67f 67f
4:54 11 15 mph 1022.4mb 67f 68f
4:48 13 14 mph 1022.5mb 67f 68f
4:42 10 13 mph 1022.6mb 66f 68f
4:36 11 14 mph 1022.6mb 66f 67f
4:30 11 14 mph 1022.6mb 66f 67f
4:24 11 14 mph 1022.7mb 66f 67f
4:18 13 15 mph 1022.6mb 67f 67f
4:12 13 14 mph 1022.7mb 67f 68f
4:06 11 15 mph 1022.8mb 66f 69f
4:00 13 17 mph 1023mb 66f 69f
3:54 14 17 mph 1023.1mb 66f 70f
3:48 14 17 mph 1023.1mb 67f 70f
3:42 14 16 mph 1023.1mb 67f 69f
3:36 13 15 mph 1023.2mb 67f 69f
3:30 10 15 mph 1023.2mb 67f 69f
3:24 14 15 mph 1023.2mb 67f 68f
3:18 13 15 mph 1023.2mb 66f 69f
3:12 11 14 mph 1023.2mb 66f 68f
3:06 10 15 mph 1023.3mb 65f 69f
3:00 13 16 mph 1023.3mb 65f 68f
2:54 15 17 mph 1023.4mb 65f 68f
2:48 15 17 mph 1023.4mb 64f 68f
2:42 14 16 mph 1023.4mb 64f 68f
2:36 15 17 mph 1023.4mb 64f 68f
2:30 14 16 mph 1023.5mb 64f 68f
2:24 14 16 mph 1023.5mb 64f 68f
2:18 13 15 mph 1023.7mb 64f 69f
2:12 14 15 mph 1023.8mb 64f 68f
2:06 10 14 mph 1023.7mb 64f 68f
2:00 11 14 mph 1023.7mb 64f 68f
1:54 11 15 mph 1023.7mb 63f 68f
1:48 14 15 mph 1023.8mb 63f 68f
1:42 14 16 mph 1023.9mb 64f 68f
1:36 14 16 mph 1023.8mb 64f 69f
1:30 13 16 mph 1023.6mb 64f 69f
1:24 14 16 mph 1023.6mb 64f 69f
1:18 14 15 mph 1023.6mb 64f 69f
1:12 14 15 mph 1023.6mb 63f 69f
1:06 11 14 mph 1023.6mb 63f 69f
1:00 11 14 mph 1023.7mb 63f 69f
12:54 13 15 mph 1023.6mb 64f 69f
12:48 13 14 mph 1023.6mb 63f 69f
12:42 11 13 mph 1023.6mb 64f 69f
12:36 10 13 mph 1023.6mb 64f 69f
12:30 11 14 mph 1023.5mb 63f 69f
12:24 11 13 mph 1023.6mb 63f 69f
12:18 10 11 mph 1023.7mb 64f 68f
12:12 9 11 mph 1023.7mb 64f 68f
12:06 10 11 mph 1023.7mb 63f 68f
12:00 10 11 mph 1023.7mb 63f 68f
11:54 8 9 mph 1023.8mb 64f 68f
11:48 8 10 mph 1023.7mb 63f 67f
11:42 8 9 mph 1023.8mb 65f 69f
11:36 7 10 mph 1023.8mb 62f 69f
11:30 10 11 mph 1023.9mb 62f 67f
11:24 10 11 mph 1023.8mb 62f 66f
11:18 9 10 mph 1023.9mb 62f 67f
11:12 9 10 mph 1024mb 64f 67f
11:06 9 10 mph 1024mb 64f 67f
11:00 7 10 mph 1024.1mb 63f 68f
10:54 8 10 mph 1024.1mb 65f 68f
10:48 10 11 mph 1024.1mb 64f 67f
10:42 9 11 mph 1024mb 63f 67f
10:36 9 11 mph 1024mb 65f 67f
10:30 9 11 mph 1023.9mb 65f 67f
10:24 10 11 mph 1024mb 64f 67f
10:18 10 11 mph 1023.9mb 63f 67f
10:12 10 11 mph 1023.8mb 63f 67f
10:06 10 11 mph 1023.7mb 63f 67f
10:00 10
mph
1023.7mb 63f 67f
9:54 9 11 mph 1023.7mb 63f 67f
9:48 9 10 mph 1023.8mb 64f 67f
9:42 9 10 mph 1023.9mb 66f 67f
9:36 8 10 mph 1024.1mb 66f 67f
9:30 8 9 mph 1024.1mb 66f 66f
9:24 7 8 mph 1024.1mb 67f 67f
9:18 8
mph
1024.1mb 67f 67f
9:12 6 7 mph 1024.2mb 67f 67f
9:06 6 7 mph 1024.3mb 67f 67f
9:00 6 7 mph 1024.1mb 67f 67f
8:54 6 7 mph 1024mb 66f 67f
8:48 7 8 mph 1023.9mb 66f 66f
8:42 6 7 mph 1023.9mb 66f 66f
8:36 5 6 mph 1024mb 66f 66f
8:30 5 6 mph 1023.9mb 66f 66f
8:24 5 6 mph 1023.9mb 66f 66f
8:18 5
mph
1023.8mb 66f 65f
8:12 3 5 mph 1023.8mb 66f 65f
8:06 5
mph
1023.8mb 66f 65f
8:00 2 3 mph 1023.7mb 66f 66f
7:54 1 2 mph 1023.6mb 66f 66f
7:48 1
mph
1023.6mb 66f 66f
7:42  -  1 mph 1023.6mb 66f 66f
7:36  -  1 mph 1023.5mb 66f 65f
7:30  -  1 mph 1023.6mb 66f 64f
7:24 1 2 mph 1023.7mb 66f 62f
7:18 2
mph
1023.6mb 66f 62f
7:12 1 2 mph 1023.6mb 66f 63f
7:06  -  2 mph 1023.6mb 66f 65f
7:00 2 3 mph 1023.6mb 65f 64f
6:54 2
mph
1023.5mb 65f 63f
6:48  -  2 mph 1023.4mb 65f 62f
6:42 2
mph
1023.2mb 65f 61f
6:36  -  2 mph 1023.2mb 65f 61f
6:30 1 3 mph 1023.3mb 65f 61f
6:24 1 5 mph 1023.3mb 64f 60f
6:18 2 6 mph 1023.4mb 64f 60f
6:12 3 6 mph 1023.5mb 64f 60f
6:06 5 6 mph 1023.6mb 65f 59f
6:00 2 3 mph 1023.6mb 65f 59f
5:54 3 5 mph 1023.6mb 65f 58f
5:48 2 6 mph 1023.6mb 65f 58f
5:42 3 6 mph 1023.6mb 65f 58f
5:36 5 6 mph 1023.6mb 65f 58f
5:30 5 6 mph 1023.7mb 65f 58f
5:24 3 6 mph 1023.7mb 64f 58f
5:18 3 6 mph 1023.7mb 65f 58f
5:12 5 6 mph 1023.8mb 65f 58f
5:06 5 6 mph 1023.8mb 65f 58f
5:00 5 6 mph 1023.8mb 65f 58f
4:54 6 7 mph 1023.8mb 65f 58f
4:48 5 7 mph 1023.8mb 65f 58f
4:42 3 5 mph 1023.9mb 65f 58f
4:36 3 6 mph 1024mb 64f 58f
4:30 3 6 mph 1024mb 64f 58f
4:24 3 5 mph 1024mb 64f 58f
4:18 3 6 mph 1024.2mb 64f 58f
4:12 5 6 mph 1024.1mb 64f 58f
4:06 3 7 mph 1024mb 65f 58f
4:00 6 7 mph 1023.9mb 64f 58f
3:54 5 7 mph 1024mb 64f 58f
3:48 6 7 mph 1024mb 65f 58f
3:42 5 7 mph 1023.8mb 64f 58f
3:36 6 7 mph 1023.7mb 64f 58f
3:30 5 6 mph 1023.6mb 64f -
3:24 5 6 mph 1023.7mb 64f -
3:18 5 6 mph 1023.8mb 64f 59f
3:12 3 6 mph 1023.8mb 64f 59f
3:06 5 6 mph 1023.7mb 64f 59f
3:00 3 6 mph 1023.5mb 64f 59f
2:54 5 6 mph 1023.4mb 64f 59f
2:48 5 6 mph 1023.4mb 65f -
2:42 5 6 mph 1023.3mb 65f -
2:36 5 6 mph 1023.3mb 64f -
2:30 5 6 mph 1023.3mb 64f 60f
2:24 3 6 mph 1023.3mb 64f 60f
2:18 3 6 mph 1023.3mb 64f 60f
2:12 5 6 mph 1023.2mb 64f 60f
2:06 3 6 mph 1023.2mb 64f 60f
2:00  -  mph 1023.2mb 64f 60f
1:54  -  mph 1023.2mb 65f 60f
1:48  -  mph 1023.1mb 63f 61f
1:42  -  mph 1023.1mb 63f 61f
1:36  -  mph 1023mb 63f 61f
1:30 2 3 mph 1023mb 63f 61f
1:24 2 3 mph 1023mb 63f 61f
1:18 2 3 mph 1023mb 62f 61f
1:12 2 3 mph 1023mb 63f 61f
1:06 1 3 mph 1023mb 63f 62f
1:00 2 3 mph 1023mb 63f 62f
12:54 2
mph
1023mb 64f 62f
12:48 2 3 mph 1023mb 65f 62f
12:42 3 5 mph 1023mb 64f 62f
12:36 3 5 mph 1023mb 64f 62f
12:30 2
mph
1023mb 63f 62f
12:24 1 2 mph 1023mb 65f 62f
12:18 1 2 mph 1023.1mb 65f 63f
12:12  -  1 mph 1023.2mb 65f 63f
12:06 1 2 mph 1023.2mb 65f 63f
12:00 1 2 mph 1023.3mb 65f 63f
Sa 06/25 11:54 1 2 mph 1023.3mb 65f 63f
11:48  -  mph 1023.2mb 64f 63f
11:42  -  mph 1023.3mb 63f 63f
11:36  -  mph 1023.3mb 64f 63f
11:30 2 3 mph 1023.4mb 64f 63f
11:24 2 3 mph 1023.4mb 64f 63f
11:18 2
mph
1023.3mb 63f 63f
11:12 1 2 mph 1023.3mb 64f 63f
11:06 2 3 mph 1023.4mb 64f 63f
11:00  -  mph 1023.4mb 64f 63f
10:54  -  mph 1023.5mb 64f 63f
10:48  -  mph 1023.5mb 64f -
10:42  -  mph 1023.5mb 64f -
10:36  -  mph 1023.6mb 64f -
10:30  -  mph 1023.6mb 64f 64f
10:24  -  mph 1023.6mb 64f 64f
10:18  -  mph - 64f 64f
10:12  -  mph - 64f 64f
10:06  -  mph - 65f 64f
10:00  -  mph 1023.6mb 65f 64f
9:54  -  mph 1023.6mb 65f 65f
9:48  -  mph - 65f -
9:42  -  mph - 64f -
9:36  -  mph - 64f -
9:30  -  mph 1023.4mb 64f -
9:24  -  mph 1023.4mb 64f -
9:18  -  mph 1023.4mb 65f 65f
9:12  -  mph 1023.3mb 67f 66f
9:06  -  mph 1023.2mb 65f 66f
9:00  -  mph 1023.3mb 67f -
8:54  -  mph 1023.1mb 68f -
8:48  -  mph 1023.1mb 68f -
8:42  -  mph 1023mb 68f -
8:36  -  mph 1023mb 68f -
8:30 5 7 mph - - -
8:24 5 9 mph - - -
8:18  -  mph 1022.8mb 67f 67f
8:12  -  mph 1022.7mb 66f 67f
8:06  -  mph 1022.6mb 67f 67f
8:00  -  mph - 66f -
7:54  -  mph - 67f -
7:48  -  mph - 67f -
7:42  -  mph - 67f -
7:36  -  mph - 66f -
7:30  -  mph 1022.4mb 66f -
7:24  -  mph 1022.3mb 65f -
7:18  -  mph 1022.3mb 65f 70f
7:12  -  mph 1022.1mb 65f 70f
7:06  -  mph 1022.1mb 65f 70f
7:00  -  mph 1022.1mb 64f -
6:54  -  mph 1022.1mb 64f -
6:48  -  mph - 64f -
6:42  -  mph - 64f -
6:36  -  mph - 64f -
6:30  -  mph 1022.3mb 64f -
6:24  -  mph 1022.3mb 64f -
6:18  -  mph 1022.3mb 64f 71f
6:12  -  mph 1022.4mb 63f 71f
6:06  -  mph 1022.3mb 63f 71f
6:00  -  mph - 64f -
5:54  -  mph - 64f -
5:48  -  mph 1022.3mb 64f -
5:42  -  mph 1022.3mb 63f -
5:36  -  mph 1022.4mb 63f -
5:30 7 9 mph 1022.4mb 63f 72f
5:24 7 9 mph 1022.5mb 64f 72f
5:18 8 9 mph 1022.6mb 64f 72f
5:12 8 10 mph 1022.5mb 64f 72f
5:06 8 10 mph 1022.4mb 64f 71f
5:00 8 10 mph 1022.3mb 64f 72f
4:54 8 10 mph 1022.3mb 67f 72f
4:48 8 11 mph 1022.2mb 65f 71f
4:42 8 10 mph 1022.2mb 65f 71f
4:36 8 10 mph 1022.2mb 65f 71f
4:30 7 10 mph 1022.3mb 66f 71f
4:24 9 10 mph 1022.2mb 66f 72f
4:18 7 9 mph 1022.1mb 66f 72f
4:12 7 10 mph 1022.2mb 65f 72f
4:06 9 10 mph 1022.3mb 66f 71f
4:00 8 10 mph 1022.2mb 65f 71f
3:54 8 10 mph 1022.2mb 65f 72f
3:48 8 11 mph 1022.2mb 65f 71f
3:42 9 13 mph 1022.2mb 65f 71f
3:36 10 13 mph 1022.2mb 65f 71f
3:30 8 11 mph 1022.2mb 66f 72f
3:24 9 11 mph 1022.2mb 66f 71f
3:18 10 13 mph 1022.1mb 65f 71f
3:12 9 13 mph 1022.2mb 65f 71f
3:06 9 14 mph 1022.3mb 65f 71f
3:00 8 10 mph 1022.4mb 66f 72f
2:54 7 10 mph 1022.4mb 65f 71f
2:48 8 13 mph 1022.4mb 66f 71f
2:42 8 11 mph 1022.4mb 64f 71f
2:36 8 11 mph 1022.5mb 64f 71f
2:30 8 13 mph 1022.5mb 63f 71f
2:24 9 13 mph 1022.5mb 63f 72f
2:18 9 11 mph 1022.5mb 64f 72f
2:12 8 11 mph 1022.6mb 64f 72f
2:06 9 14 mph 1022.7mb 64f 71f
2:00 10 13 mph - 64f 73f
1:54 10 14 mph - 65f 72f
1:48 10 14 mph 1022.7mb 65f 73f
1:42 10 14 mph 1022.7mb 64f 72f
1:36 11 14 mph 1022.6mb 64f 72f
1:30 11 14 mph 1022.6mb 64f 72f
1:24 9 14 mph 1022.5mb 64f 73f
1:18 11 14 mph 1022.6mb 63f 72f
1:12 10 13 mph 1022.7mb 63f 71f